Terminal Aerodrome Forecast
Issued by NWS Boston, MA

Current Version | Previous Version | Text Only | Print | Product List | Glossary On
Versions: 1 2 3 4 5 6 7 8 9 10 11 12 13 14 15 16 17 18 19 20 21 22 23 24
000 FTUS41 KBOX 212340 TAFBOS TAF KBOS 212340Z 2200/2306 22007KT P6SM FEW250 FM220900 20005KT P6SM -RA SCT025 BKN090 FM221200 18005KT 5SM RA BR OVC025 FM221400 24004KT 2SM RA BR OVC010 FM221600 27004KT 3SM -RA BR OVC008 FM221800 32006KT P6SM -RA BKN015 FM222100 31008KT P6SM SCT050 FM222300 32011G21KT P6SM FEW200=

USA.gov is the U.S. government's official web portal to all federal, state and local government web resources and services.